createdAt,value
2017-04-12T00:00:53.069Z,2.40
2017-04-12T00:01:52.412Z,2.55
2017-04-12T00:02:54.590Z,2.30
2017-04-12T00:03:54.281Z,2.83
2017-04-12T00:04:53.651Z,2.17
2017-04-12T00:05:55.928Z,2.20
2017-04-12T00:06:56.521Z,2.50
2017-04-12T00:07:55.855Z,2.25
2017-04-12T00:08:58.773Z,2.00
2017-04-12T00:09:58.815Z,2.75
2017-04-12T00:10:58.186Z,2.23
2017-04-12T00:11:58.895Z,1.87
2017-04-12T00:13:00.162Z,2.60
2017-04-12T00:13:59.933Z,2.47
2017-04-12T00:14:59.321Z,2.58
2017-04-12T00:15:58.798Z,2.82
2017-04-12T00:16:59.199Z,2.22
2017-04-12T00:17:58.565Z,2.27
2017-04-12T00:18:57.967Z,3.00
2017-04-12T00:19:58.401Z,2.33
2017-04-12T00:20:57.825Z,2.17
2017-04-12T00:21:57.193Z,2.48
2017-04-12T00:22:56.654Z,2.27
2017-04-12T00:23:55.991Z,2.00
2017-04-12T00:24:56.122Z,1.98
2017-04-12T00:25:55.566Z,2.43
2017-04-12T00:26:55.041Z,2.07
2017-04-12T00:27:55.174Z,2.58
2017-04-12T00:28:58.798Z,2.77
2017-04-12T00:29:58.880Z,2.00
2017-04-12T00:30:58.593Z,2.02
2017-04-12T00:31:58.917Z,2.40
2017-04-12T00:32:58.295Z,2.70
2017-04-12T00:34:01.321Z,2.53
2017-04-12T00:35:01.021Z,2.13
2017-04-12T00:36:00.425Z,2.48
2017-04-12T00:36:59.839Z,2.42
2017-04-12T00:37:59.209Z,3.37
2017-04-12T00:38:59.275Z,2.08
2017-04-12T00:39:58.638Z,2.15
2017-04-12T00:40:58.709Z,2.33
2017-04-12T00:42:04.978Z,2.20
2017-04-12T00:43:04.344Z,2.20
2017-04-12T00:44:03.676Z,1.92
2017-04-12T00:45:03.101Z,2.33
2017-04-12T00:46:03.046Z,2.08
2017-04-12T00:47:03.525Z,2.30
2017-04-12T00:48:03.186Z,2.33
2017-04-12T00:49:02.469Z,2.43
2017-04-12T00:50:05.434Z,2.68
2017-04-12T00:51:05.148Z,2.10
2017-04-12T00:52:04.941Z,2.37
2017-04-12T00:53:05.493Z,1.97
2017-04-12T00:54:05.069Z,2.08
2017-04-12T00:55:04.918Z,1.97
2017-04-12T00:56:04.219Z,2.05
2017-04-12T00:57:04.547Z,2.35
2017-04-12T00:58:03.877Z,1.92
2017-04-12T00:59:03.214Z,2.43
2017-04-12T01:00:02.541Z,2.37
2017-04-12T01:01:02.316Z,2.53
2017-04-12T01:02:02.726Z,2.52
2017-04-12T01:03:03.035Z,2.22
2017-04-12T01:04:04.545Z,1.95
2017-04-12T01:05:03.919Z,2.63
2017-04-12T01:06:03.685Z,2.05
2017-04-12T01:07:03.058Z,1.90
2017-04-12T01:08:02.405Z,1.92
2017-04-12T01:09:01.781Z,1.93
2017-04-12T01:10:02.253Z,2.07
2017-04-12T01:11:02.485Z,1.88
2017-04-12T01:12:01.887Z,2.07
2017-04-12T01:13:01.241Z,2.30
2017-04-12T01:14:00.713Z,2.22
2017-04-12T01:15:00.121Z,2.28
2017-04-12T01:16:02.703Z,1.97
2017-04-12T01:17:02.081Z,2.37
2017-04-12T01:18:01.484Z,1.97
2017-04-12T01:19:00.841Z,2.48
2017-04-12T01:20:00.864Z,1.88
2017-04-12T01:21:00.184Z,1.87
2017-04-12T01:21:59.612Z,2.18
2017-04-12T01:22:59.012Z,2.18
2017-04-12T01:23:59.156Z,1.82
2017-04-12T01:24:59.201Z,1.90
2017-04-12T01:25:58.693Z,1.90
2017-04-12T01:26:58.078Z,1.82
2017-04-12T01:27:57.599Z,2.28
2017-04-12T01:28:57.536Z,1.85
2017-04-12T01:29:56.944Z,2.77
2017-04-12T01:30:56.281Z,2.55
2017-04-12T01:31:55.701Z,2.43
2017-04-12T01:32:55.772Z,2.22
2017-04-12T01:33:55.147Z,2.45
2017-04-12T01:34:54.566Z,2.18
2017-04-12T01:35:53.892Z,2.27
2017-04-12T01:36:53.306Z,2.32
2017-04-12T01:37:53.590Z,2.15
2017-04-12T01:38:56.328Z,1.88
2017-04-12T01:39:56.081Z,2.02
2017-04-12T01:40:57.516Z,2.00
2017-04-12T01:41:57.729Z,2.12
2017-04-12T01:42:58.186Z,2.00
2017-04-12T01:43:59.760Z,2.28
2017-04-12T01:45:00.148Z,2.35
2017-04-12T01:46:00.132Z,2.03
2017-04-12T01:47:00.155Z,2.07
2017-04-12T01:47:59.575Z,1.93
2017-04-12T01:48:58.917Z,2.22
2017-04-12T01:49:58.292Z,2.47
2017-04-12T01:50:57.630Z,2.47
2017-04-12T01:51:57.762Z,2.83
2017-04-12T01:52:57.113Z,2.17
2017-04-12T01:53:56.469Z,1.95
2017-04-12T01:54:56.629Z,2.35
2017-04-12T01:55:55.969Z,1.83
2017-04-12T01:56:55.374Z,2.32
2017-04-12T01:57:54.729Z,2.02
2017-04-12T01:58:54.146Z,2.03
2017-04-12T01:59:53.539Z,2.58
2017-04-12T02:00:52.858Z,2.40
2017-04-12T02:01:52.245Z,2.62
2017-04-12T02:02:51.697Z,2.53
2017-04-12T02:03:51.132Z,2.60
2017-04-12T02:04:50.547Z,2.58
2017-04-12T02:05:49.950Z,2.23
2017-04-12T02:06:49.353Z,2.05
2017-04-12T02:07:49.572Z,2.30
2017-04-12T02:08:49.718Z,2.10
2017-04-12T02:09:49.165Z,2.00
2017-04-12T02:10:48.646Z,1.85
2017-04-12T02:11:48.119Z,2.17
2017-04-12T02:12:47.561Z,1.83
2017-04-12T02:13:47.726Z,1.93
2017-04-12T02:14:47.398Z,1.98
2017-04-12T02:15:46.870Z,2.20
2017-04-12T02:16:48.690Z,2.17
2017-04-12T02:17:48.779Z,2.42
2017-04-12T02:18:49.094Z,2.20
2017-04-12T02:19:48.581Z,2.25
2017-04-12T02:20:48.033Z,2.43
2017-04-12T02:21:47.407Z,2.08
2017-04-12T02:22:46.947Z,1.70
2017-04-12T02:23:46.759Z,2.15
2017-04-12T02:24:46.165Z,2.02
2017-04-12T02:25:45.630Z,2.35
2017-04-12T02:26:45.199Z,2.27
2017-04-12T02:27:44.606Z,1.93
2017-04-12T02:28:43.975Z,2.38
2017-04-12T02:29:43.384Z,1.90
2017-04-12T02:30:42.876Z,2.27
2017-04-12T02:31:42.331Z,2.03
2017-04-12T02:32:41.980Z,2.37
2017-04-12T02:33:41.371Z,2.62
2017-04-12T02:34:40.784Z,1.95
2017-04-12T02:35:40.262Z,2.68
2017-04-12T02:36:39.625Z,2.17
2017-04-12T02:37:39.045Z,2.50
2017-04-12T02:38:38.457Z,2.33
2017-04-12T02:39:37.877Z,2.32
2017-04-12T02:40:39.271Z,2.10
2017-04-12T02:41:38.713Z,2.07
2017-04-12T02:42:38.160Z,2.30
2017-04-12T02:43:37.847Z,3.13
2017-04-12T02:44:37.583Z,2.17
2017-04-12T02:45:36.932Z,2.43
2017-04-12T02:46:36.397Z,2.10
2017-04-12T02:47:35.837Z,2.13
2017-04-12T02:48:35.352Z,2.55
2017-04-12T02:49:34.862Z,2.22
2017-04-12T02:50:34.324Z,1.95
2017-04-12T02:51:33.715Z,3.08
2017-04-12T02:52:33.038Z,2.80
2017-04-12T02:53:32.783Z,2.38
2017-04-12T02:54:33.187Z,2.65
2017-04-12T02:55:32.641Z,2.33
2017-04-12T02:56:32.202Z,2.07
2017-04-12T02:57:31.582Z,1.93
2017-04-12T02:58:31.008Z,2.27
2017-04-12T02:59:30.371Z,2.60
2017-04-12T03:00:29.761Z,1.90
2017-04-12T03:01:29.139Z,2.02
2017-04-12T03:02:28.608Z,2.22
2017-04-12T03:03:28.026Z,2.42
2017-04-12T03:04:27.358Z,2.40
2017-04-12T03:05:26.989Z,2.95
2017-04-12T03:06:26.437Z,2.27
2017-04-12T03:07:25.770Z,2.67
2017-04-12T03:08:25.059Z,1.87
2017-04-12T03:09:24.360Z,2.58
2017-04-12T03:10:23.671Z,2.73
2017-04-12T03:11:23.064Z,3.33
2017-04-12T03:12:22.475Z,3.40
2017-04-12T03:13:21.877Z,2.78
2017-04-12T03:14:21.292Z,3.27
2017-04-12T03:15:20.613Z,3.25
2017-04-12T03:16:20.070Z,2.62
2017-04-12T03:17:19.498Z,2.82
2017-04-12T03:18:18.841Z,3.13
2017-04-12T03:19:24.810Z,2.87
2017-04-12T03:20:24.154Z,3.53
2017-04-12T03:21:23.813Z,3.22
2017-04-12T03:22:23.134Z,3.22
2017-04-12T03:23:22.492Z,2.70
2017-04-12T03:24:22.792Z,3.65
2017-04-12T03:25:22.193Z,3.03
2017-04-12T03:26:21.556Z,3.42
2017-04-12T03:27:21.025Z,3.33
2017-04-12T03:28:21.126Z,2.75
2017-04-12T03:29:20.503Z,3.27
2017-04-12T03:30:20.188Z,2.72
2017-04-12T03:31:19.582Z,3.22
2017-04-12T03:32:19.254Z,3.37
2017-04-12T03:33:18.589Z,3.15
2017-04-12T03:34:17.908Z,3.10
2017-04-12T03:35:17.243Z,3.60
2017-04-12T03:36:16.600Z,2.97
2017-04-12T03:37:15.960Z,3.67
2017-04-12T03:38:15.383Z,3.65
2017-04-12T03:39:15.427Z,2.90
2017-04-12T03:40:14.859Z,3.07
2017-04-12T03:41:14.260Z,3.18
2017-04-12T03:42:13.639Z,2.43
2017-04-12T03:43:13.007Z,2.82
2017-04-12T03:44:12.369Z,3.12
2017-04-12T03:45:11.737Z,3.10
2017-04-12T03:46:11.149Z,3.62
2017-04-12T03:47:11.327Z,3.42
2017-04-12T03:48:10.961Z,4.27
2017-04-12T03:49:10.339Z,2.65
2017-04-12T03:50:09.951Z,2.93
2017-04-12T03:51:09.418Z,3.62
2017-04-12T03:52:08.885Z,3.08
2017-04-12T03:53:08.205Z,3.15
2017-04-12T03:54:07.654Z,3.33
2017-04-12T03:55:08.025Z,3.48
2017-04-12T03:56:07.501Z,2.62
2017-04-12T03:57:06.853Z,3.80
2017-04-12T03:58:06.994Z,2.92
2017-04-12T03:59:06.328Z,3.08
2017-04-12T04:00:05.693Z,3.05
2017-04-12T04:01:05.110Z,3.40
2017-04-12T04:02:04.473Z,2.97
2017-04-12T04:03:03.960Z,2.85
2017-04-12T04:04:03.445Z,3.25
2017-04-12T04:05:03.359Z,3.37
2017-04-12T04:06:02.737Z,3.10
2017-04-12T04:07:02.719Z,3.73
2017-04-12T04:08:02.031Z,2.72
2017-04-12T04:09:01.393Z,3.27
2017-04-12T04:10:00.762Z,4.18
2017-04-12T04:11:00.315Z,3.35
2017-04-12T04:11:59.638Z,3.55
2017-04-12T04:12:59.006Z,3.28
2017-04-12T04:13:58.282Z,2.90
2017-04-12T04:14:57.592Z,2.57
2017-04-12T04:15:57.026Z,3.68
2017-04-12T04:16:56.606Z,3.17
2017-04-12T04:17:55.936Z,2.75
2017-04-12T04:18:56.189Z,3.13
2017-04-12T04:19:55.586Z,2.95
2017-04-12T04:20:54.935Z,3.72
2017-04-12T04:21:59.669Z,2.87
2017-04-12T04:22:58.967Z,3.27
2017-04-12T04:23:58.633Z,3.23
2017-04-12T04:24:57.963Z,3.13
2017-04-12T04:25:57.291Z,2.90
2017-04-12T04:26:56.619Z,2.85
2017-04-12T04:27:55.989Z,3.65
2017-04-12T04:28:55.292Z,3.05
2017-04-12T04:29:56.397Z,3.27
2017-04-12T04:30:55.869Z,3.45
2017-04-12T04:31:55.247Z,3.30
2017-04-12T04:32:55.141Z,3.50
2017-04-12T04:33:54.479Z,3.37
2017-04-12T04:34:53.752Z,2.95
2017-04-12T04:35:53.086Z,3.42
2017-04-12T04:36:52.429Z,3.33
2017-04-12T04:37:51.791Z,2.33
2017-04-12T04:38:51.902Z,2.68
2017-04-12T04:39:51.245Z,3.63
2017-04-12T04:40:50.626Z,3.20
2017-04-12T04:41:49.949Z,2.87
2017-04-12T04:42:49.322Z,2.82
2017-04-12T04:43:48.949Z,3.10
2017-04-12T04:44:48.344Z,3.08
2017-04-12T04:45:47.751Z,3.10
2017-04-12T04:46:47.860Z,2.82
2017-04-12T04:47:47.506Z,3.10
2017-04-12T04:48:46.858Z,2.90
2017-04-12T04:49:46.297Z,3.70
2017-04-12T04:50:45.606Z,2.97
2017-04-12T04:51:45.016Z,3.10
2017-04-12T04:52:44.362Z,3.00
2017-04-12T04:53:43.696Z,2.92
2017-04-12T04:54:43.089Z,3.38
2017-04-12T04:55:42.417Z,2.62
2017-04-12T04:56:41.769Z,3.25
2017-04-12T04:57:41.850Z,2.80
2017-04-12T04:58:41.237Z,2.52
2017-04-12T04:59:41.218Z,2.83
2017-04-12T05:00:40.627Z,2.80
2017-04-12T05:01:39.912Z,2.95
2017-04-12T05:02:39.544Z,2.90
2017-04-12T05:03:38.887Z,2.60
2017-04-12T05:04:38.229Z,2.60
2017-04-12T05:05:37.558Z,2.83
2017-04-12T05:06:36.852Z,2.92
2017-04-12T05:07:36.155Z,3.02
2017-04-12T05:08:35.435Z,2.93
2017-04-12T05:09:35.517Z,3.65
2017-04-12T05:10:34.894Z,2.58
2017-04-12T05:11:34.281Z,2.95
2017-04-12T05:12:33.655Z,3.00
2017-04-12T05:13:33.045Z,3.72
2017-04-12T05:14:32.462Z,3.47
2017-04-12T05:15:31.777Z,3.98
2017-04-12T05:16:31.137Z,2.85
2017-04-12T05:17:30.497Z,2.75
2017-04-12T05:18:29.900Z,2.98
2017-04-12T05:19:29.250Z,4.05
2017-04-12T05:20:28.607Z,3.53
2017-04-12T05:21:27.925Z,2.93
2017-04-12T05:22:27.241Z,3.22
2017-04-12T05:23:26.592Z,2.98
2017-04-12T05:24:25.938Z,3.08
2017-04-12T05:25:25.266Z,2.82
2017-04-12T05:26:24.620Z,3.33
2017-04-12T05:27:24.693Z,3.60
2017-04-12T05:28:24.091Z,3.90
2017-04-12T05:29:23.934Z,3.18
2017-04-12T05:30:23.954Z,4.28
2017-04-12T05:31:23.250Z,3.43
2017-04-12T05:32:22.688Z,3.85
2017-04-12T05:33:22.046Z,3.48
2017-04-12T05:34:21.409Z,4.50
2017-04-12T05:35:20.745Z,3.93
2017-04-12T05:36:20.024Z,3.55
2017-04-12T05:37:19.335Z,3.95
2017-04-12T05:38:19.455Z,3.77
2017-04-12T05:39:18.840Z,3.45
2017-04-12T05:40:18.453Z,4.17
2017-04-12T05:41:17.778Z,3.80
2017-04-12T05:42:17.196Z,4.23
2017-04-12T05:43:17.421Z,4.18
2017-04-12T05:44:16.784Z,3.83
2017-04-12T05:45:16.113Z,3.57
2017-04-12T05:46:15.484Z,4.07
2017-04-12T05:47:14.866Z,3.85
2017-04-12T05:48:14.165Z,4.60
2017-04-12T05:49:13.513Z,3.68
2017-04-12T05:50:12.883Z,3.53
2017-04-12T05:51:13.001Z,3.60
2017-04-12T05:52:12.389Z,4.52
2017-04-12T05:53:11.727Z,3.42
2017-04-12T05:54:11.123Z,3.82
2017-04-12T05:55:10.435Z,3.47
2017-04-12T05:56:09.775Z,3.70
2017-04-12T05:57:09.076Z,4.02
2017-04-12T05:58:08.437Z,3.28
2017-04-12T05:59:07.772Z,3.88
2017-04-12T06:00:07.101Z,3.55
2017-04-12T06:01:06.466Z,3.47
2017-04-12T06:02:05.768Z,3.48
2017-04-12T06:03:05.138Z,3.65
2017-04-12T06:04:04.417Z,4.10
2017-04-12T06:05:03.781Z,4.33
2017-04-12T06:06:03.095Z,3.90
2017-04-12T06:07:02.429Z,4.25
2017-04-12T06:08:01.966Z,4.05
2017-04-12T06:09:01.357Z,3.05
2017-04-12T06:10:01.484Z,3.60
2017-04-12T06:11:01.551Z,3.38
2017-04-12T06:12:01.375Z,3.13
2017-04-12T06:13:00.723Z,4.00
2017-04-12T06:14:00.030Z,3.80
2017-04-12T06:14:59.338Z,3.95
2017-04-12T06:15:58.682Z,3.98
2017-04-12T06:16:58.178Z,3.68
2017-04-12T06:17:58.264Z,3.63
2017-04-12T06:18:57.621Z,3.90
2017-04-12T06:19:57.004Z,5.25
2017-04-12T06:20:56.522Z,4.63
2017-04-12T06:21:56.113Z,4.50
2017-04-12T06:22:56.122Z,4.87
2017-04-12T06:23:55.656Z,3.55
2017-04-12T06:24:54.946Z,4.13
2017-04-12T06:25:54.277Z,4.20
2017-04-12T06:26:53.645Z,4.23
2017-04-12T06:27:52.938Z,3.93
2017-04-12T06:28:52.284Z,4.12
2017-04-12T06:29:51.594Z,3.88
2017-04-12T06:30:50.886Z,3.42
2017-04-12T06:31:50.190Z,4.10
2017-04-12T06:32:49.588Z,3.70
2017-04-12T06:33:48.987Z,3.37
2017-04-12T06:34:49.028Z,4.15
2017-04-12T06:35:48.697Z,3.73
2017-04-12T06:36:48.038Z,3.73
2017-04-12T06:37:47.378Z,3.98
2017-04-12T06:38:46.720Z,3.98
2017-04-12T06:39:46.771Z,4.25
2017-04-12T06:40:46.077Z,3.65
2017-04-12T06:41:45.346Z,4.20
2017-04-12T06:42:44.687Z,4.67
2017-04-12T06:43:44.060Z,4.05
2017-04-12T06:44:43.353Z,4.02
2017-04-12T06:45:43.394Z,3.87
2017-04-12T06:46:42.704Z,3.53
2017-04-12T06:47:41.985Z,3.55
2017-04-12T06:48:41.324Z,4.67
2017-04-12T06:49:41.475Z,4.17
2017-04-12T06:50:41.222Z,3.62
2017-04-12T06:51:40.503Z,3.93
2017-04-12T06:52:39.846Z,4.08
2017-04-12T06:53:39.181Z,3.58
2017-04-12T06:54:38.475Z,3.80
2017-04-12T06:55:38.117Z,4.87
2017-04-12T06:56:37.443Z,3.73
2017-04-12T06:57:36.799Z,4.23
2017-04-12T06:58:36.088Z,4.35
2017-04-12T06:59:35.494Z,4.12
2017-04-12T07:00:34.842Z,3.88
2017-04-12T07:01:34.314Z,3.80
2017-04-12T07:02:34.560Z,4.62
2017-04-12T07:03:34.616Z,3.78
2017-04-12T07:04:34.089Z,4.12
2017-04-12T07:05:34.024Z,3.82
2017-04-12T07:06:33.400Z,3.72
2017-04-12T07:07:32.699Z,4.17
2017-04-12T07:08:32.761Z,4.38
2017-04-12T07:09:32.050Z,4.77
2017-04-12T07:10:31.381Z,4.12
2017-04-12T07:11:30.745Z,3.70
2017-04-12T07:12:30.067Z,4.35
2017-04-12T07:13:29.439Z,3.93
2017-04-12T07:14:28.773Z,4.13
2017-04-12T07:15:29.246Z,4.38
2017-04-12T07:16:28.645Z,5.48
2017-04-12T07:17:28.024Z,5.00
2017-04-12T07:18:27.395Z,5.32
2017-04-12T07:19:26.714Z,5.43
2017-04-12T07:20:26.045Z,4.90
2017-04-12T07:21:25.388Z,3.85
2017-04-12T07:22:24.909Z,3.80
2017-04-12T07:23:24.213Z,4.20
2017-04-12T07:24:23.507Z,3.80
2017-04-12T07:25:22.841Z,4.90
2017-04-12T07:26:22.227Z,4.05
2017-04-12T07:27:21.576Z,3.78
2017-04-12T07:28:21.757Z,4.38
2017-04-12T07:29:21.140Z,4.00
2017-04-12T07:30:20.541Z,3.72
2017-04-12T07:31:19.897Z,4.18
2017-04-12T07:32:19.285Z,4.23
2017-04-12T07:33:18.708Z,3.82
2017-04-12T07:34:18.152Z,4.60
2017-04-12T07:35:17.516Z,3.95
2017-04-12T07:36:16.871Z,3.83
2017-04-12T07:37:16.245Z,4.40
2017-04-12T07:38:15.580Z,4.90
2017-04-12T07:39:14.934Z,4.02
2017-04-12T07:40:14.226Z,3.92
2017-04-12T07:41:13.553Z,4.60
2017-04-12T07:42:12.888Z,4.72
2017-04-12T07:43:12.292Z,4.37
2017-04-12T07:44:12.674Z,3.83
2017-04-12T07:45:12.368Z,4.08
2017-04-12T07:46:18.205Z,4.35
2017-04-12T07:47:18.318Z,4.58
2017-04-12T07:48:17.622Z,5.43
2017-04-12T07:49:17.317Z,4.97
2017-04-12T07:50:16.628Z,3.68
2017-04-12T07:51:15.931Z,3.73
2017-04-12T07:52:15.278Z,4.18
2017-04-12T07:53:14.557Z,5.55
2017-04-12T07:54:14.674Z,4.13
2017-04-12T07:55:14.891Z,4.60
2017-04-12T07:56:14.260Z,5.33
2017-04-12T07:57:13.561Z,3.90
2017-04-12T07:58:13.389Z,5.27
2017-04-12T07:59:12.683Z,4.62
2017-04-12T08:00:12.362Z,4.55
2017-04-12T08:01:11.652Z,4.38
2017-04-12T08:02:10.996Z,4.18
2017-04-12T08:03:10.470Z,3.88
2017-04-12T08:04:09.761Z,4.27
2017-04-12T08:05:09.046Z,4.72
2017-04-12T08:06:08.405Z,4.58
2017-04-12T08:07:07.804Z,3.95
2017-04-12T08:08:07.193Z,4.08
2017-04-12T08:09:06.615Z,4.03
2017-04-12T08:10:06.042Z,4.10
2017-04-12T08:11:06.588Z,4.27
2017-04-12T08:12:05.993Z,4.02
2017-04-12T08:13:06.026Z,3.60
2017-04-12T08:14:05.381Z,4.52
2017-04-12T08:15:04.661Z,4.25
2017-04-12T08:16:04.760Z,3.67
2017-04-12T08:17:04.210Z,4.62
2017-04-12T08:18:03.590Z,4.17
2017-04-12T08:19:03.013Z,3.92
2017-04-12T08:20:02.446Z,4.03
2017-04-12T08:21:01.803Z,3.88
2017-04-12T08:22:01.199Z,4.20
2017-04-12T08:23:00.570Z,4.02
2017-04-12T08:23:59.962Z,4.35
2017-04-12T08:24:59.266Z,4.93
2017-04-12T08:25:58.611Z,4.05
2017-04-12T08:26:57.973Z,3.70
2017-04-12T08:27:57.297Z,4.47
2017-04-12T08:28:56.714Z,4.33
2017-04-12T08:29:56.100Z,4.28
2017-04-12T08:30:56.291Z,5.23
2017-04-12T08:31:55.578Z,4.72
2017-04-12T08:32:54.988Z,3.78
2017-04-12T08:33:54.588Z,4.50
2017-04-12T08:34:54.032Z,4.25
2017-04-12T08:35:53.396Z,4.57
2017-04-12T08:36:52.719Z,4.75
2017-04-12T08:37:52.060Z,4.62
2017-04-12T08:38:51.419Z,3.97
2017-04-12T08:39:51.766Z,4.10
2017-04-12T08:40:51.061Z,3.98
2017-04-12T08:41:50.397Z,3.92
2017-04-12T08:42:49.900Z,4.30
2017-04-12T08:43:49.201Z,3.95
2017-04-12T08:44:48.497Z,4.58
2017-04-12T08:45:47.882Z,4.12
2017-04-12T08:46:47.255Z,3.90
2017-04-12T08:47:46.570Z,3.62
2017-04-12T08:48:45.888Z,4.52
2017-04-12T08:49:45.345Z,3.98
2017-04-12T08:50:44.847Z,4.05
2017-04-12T08:51:44.388Z,4.28
2017-04-12T08:52:43.854Z,4.45
2017-04-12T08:53:43.253Z,4.47
2017-04-12T08:54:42.628Z,3.97
2017-04-12T08:55:42.186Z,4.50
2017-04-12T08:56:41.531Z,3.78
2017-04-12T08:57:41.393Z,4.03
2017-04-12T08:58:40.721Z,4.10
2017-04-12T08:59:40.910Z,3.92
2017-04-12T09:00:40.341Z,4.02
2017-04-12T09:01:40.325Z,4.08
2017-04-12T09:02:39.907Z,4.28
2017-04-12T09:03:39.300Z,4.20
2017-04-12T09:04:38.704Z,4.55
2017-04-12T09:05:38.162Z,3.80
2017-04-12T09:06:43.081Z,3.42
2017-04-12T09:07:43.175Z,3.93
2017-04-12T09:08:42.571Z,3.90
2017-04-12T09:09:42.735Z,3.98
2017-04-12T09:10:42.633Z,3.75
2017-04-12T09:11:42.185Z,3.65
2017-04-12T09:12:41.986Z,4.15
2017-04-12T09:13:41.367Z,4.12
2017-04-12T09:14:41.702Z,3.93
2017-04-12T09:15:41.053Z,4.17
2017-04-12T09:16:40.398Z,3.35
2017-04-12T09:17:39.849Z,3.78
2017-04-12T09:18:39.181Z,4.10
2017-04-12T09:19:38.688Z,3.83
2017-04-12T09:20:38.085Z,4.00
2017-04-12T09:21:37.400Z,4.17
2017-04-12T09:22:36.732Z,3.73
2017-04-12T09:23:36.089Z,4.13
2017-04-12T09:24:35.458Z,4.27
2017-04-12T09:25:34.824Z,4.45
2017-04-12T09:26:34.929Z,3.52
2017-04-12T09:27:34.504Z,4.20
2017-04-12T09:28:33.872Z,3.87
2017-04-12T09:29:33.197Z,4.33
2017-04-12T09:30:33.594Z,3.92
2017-04-12T09:31:32.922Z,4.15
2017-04-12T09:32:32.618Z,3.90
2017-04-12T09:33:32.033Z,4.63
2017-04-12T09:34:31.698Z,4.97
2017-04-12T09:35:31.026Z,3.90
2017-04-12T09:36:30.388Z,3.43
2017-04-12T09:37:29.735Z,3.10
2017-04-12T09:38:30.674Z,4.22
2017-04-12T09:39:30.046Z,4.00
2017-04-12T09:40:29.492Z,3.85
2017-04-12T09:41:28.826Z,4.05
2017-04-12T09:42:28.192Z,4.62
2017-04-12T09:43:27.550Z,4.27
2017-04-12T09:44:27.632Z,4.45
2017-04-12T09:45:27.140Z,4.02
2017-04-12T09:46:26.483Z,4.15
2017-04-12T09:47:25.796Z,4.17
2017-04-12T09:48:25.162Z,4.60
2017-04-12T09:49:25.205Z,4.60
2017-04-12T09:50:24.537Z,4.32
2017-04-12T09:51:24.181Z,4.18
2017-04-12T09:52:23.535Z,4.98
2017-04-12T09:53:23.046Z,4.42
2017-04-12T09:54:22.456Z,4.53
2017-04-12T09:55:21.992Z,4.53
2017-04-12T09:56:21.398Z,4.60
2017-04-12T09:57:20.790Z,3.95
2017-04-12T09:58:20.132Z,4.08
2017-04-12T09:59:19.868Z,4.37
2017-04-12T10:00:19.236Z,4.50
2017-04-12T10:01:18.693Z,4.83
2017-04-12T10:02:18.097Z,5.20
2017-04-12T10:03:17.531Z,4.77
2017-04-12T10:04:18.034Z,4.22
2017-04-12T10:05:17.483Z,4.82
2017-04-12T10:06:16.831Z,4.68
2017-04-12T10:07:16.211Z,4.53
2017-04-12T10:08:15.638Z,4.50
2017-04-12T10:09:15.136Z,4.75
2017-04-12T10:10:14.520Z,4.68
2017-04-12T10:11:13.836Z,4.13
2017-04-12T10:12:13.254Z,3.97
2017-04-12T10:13:12.702Z,5.03
2017-04-12T10:14:12.066Z,4.80
2017-04-12T10:15:11.470Z,4.63
2017-04-12T10:16:10.821Z,4.53
2017-04-12T10:17:10.217Z,4.72
2017-04-12T10:18:10.369Z,4.85
2017-04-12T10:19:09.811Z,4.85
2017-04-12T10:20:09.201Z,4.27
2017-04-12T10:21:08.619Z,4.52
2017-04-12T10:22:08.314Z,4.63
2017-04-12T10:23:08.510Z,4.50
2017-04-12T10:24:07.866Z,4.20
2017-04-12T10:25:07.303Z,4.52
2017-04-12T10:26:06.975Z,4.68
2017-04-12T10:27:06.334Z,5.18
2017-04-12T10:28:05.845Z,4.60
2017-04-12T10:29:05.202Z,4.40
2017-04-12T10:30:04.510Z,4.63
2017-04-12T10:31:03.907Z,5.33
2017-04-12T10:32:03.766Z,3.77
2017-04-12T10:33:03.160Z,5.17
2017-04-12T10:34:03.068Z,4.35
2017-04-12T10:35:02.412Z,4.50
2017-04-12T10:36:01.780Z,5.08
2017-04-12T10:37:01.361Z,4.88
2017-04-12T10:38:00.674Z,4.90
2017-04-12T10:39:00.077Z,4.95
2017-04-12T10:40:00.127Z,4.80
2017-04-12T10:40:59.697Z,4.63
2017-04-12T10:41:59.276Z,5.25
2017-04-12T10:42:58.900Z,4.67
2017-04-12T10:43:58.240Z,4.97
2017-04-12T10:44:57.612Z,5.22
2017-04-12T10:45:56.988Z,5.17
2017-04-12T10:46:56.534Z,5.97
2017-04-12T10:47:55.966Z,5.87
2017-04-12T10:48:55.328Z,4.50
2017-04-12T10:49:55.394Z,5.03
2017-04-12T10:50:54.791Z,4.47
2017-04-12T10:51:54.128Z,4.72
2017-04-12T10:52:53.499Z,4.95
2017-04-12T10:53:53.142Z,5.45
2017-04-12T10:54:53.282Z,5.07
2017-04-12T10:55:52.611Z,5.05
2017-04-12T10:56:52.881Z,5.35
2017-04-12T10:57:52.156Z,6.02
2017-04-12T10:58:51.533Z,5.52
2017-04-12T10:59:51.023Z,6.10
2017-04-12T11:00:50.387Z,5.67
2017-04-12T11:01:49.797Z,5.98
2017-04-12T11:02:49.107Z,4.90
2017-04-12T11:03:48.433Z,6.07
2017-04-12T11:04:47.721Z,5.13
2017-04-12T11:05:47.113Z,4.87
2017-04-12T11:06:46.441Z,4.97
2017-04-12T11:07:46.437Z,5.32
2017-04-12T11:08:46.691Z,4.82
2017-04-12T11:09:46.927Z,4.90
2017-04-12T11:10:47.716Z,4.57
2017-04-12T11:11:47.141Z,5.07
2017-04-12T11:12:47.200Z,5.23
2017-04-12T11:13:47.346Z,4.83
2017-04-12T11:14:46.714Z,5.13
2017-04-12T11:15:46.235Z,4.85
2017-04-12T11:16:46.318Z,5.00
2017-04-12T11:17:45.642Z,3.72
2017-04-12T11:18:45.049Z,3.70
2017-04-12T11:19:44.445Z,4.07
2017-04-12T11:20:43.740Z,3.88
2017-04-12T11:21:43.358Z,4.45
2017-04-12T11:22:42.658Z,4.88
2017-04-12T11:23:41.978Z,4.72
2017-04-12T11:24:41.401Z,4.58
2017-04-12T11:25:40.712Z,4.32
2017-04-12T11:26:40.877Z,4.38
2017-04-12T11:27:40.261Z,3.97
2017-04-12T11:28:40.371Z,4.40
2017-04-12T11:29:39.637Z,4.80
2017-04-12T11:30:39.368Z,4.52
2017-04-12T11:31:39.850Z,4.85
2017-04-12T11:32:39.260Z,5.50
2017-04-12T11:33:38.587Z,5.13
2017-04-12T11:34:37.921Z,4.55
2017-04-12T11:35:37.234Z,4.02
2017-04-12T11:36:36.825Z,4.92
2017-04-12T11:37:36.262Z,4.45
2017-04-12T11:38:35.638Z,4.62
2017-04-12T11:39:34.979Z,3.93
2017-04-12T11:40:34.362Z,4.83
2017-04-12T11:41:33.661Z,4.60
2017-04-12T11:42:33.091Z,4.45
2017-04-12T11:43:32.470Z,4.58
2017-04-12T11:44:31.816Z,4.83
2017-04-12T11:45:31.147Z,4.38
2017-04-12T11:46:30.493Z,5.20
2017-04-12T11:47:29.888Z,5.18
2017-04-12T11:48:29.793Z,4.68
2017-04-12T11:49:29.478Z,4.70
2017-04-12T11:50:28.802Z,5.03
2017-04-12T11:51:28.251Z,5.17
2017-04-12T11:52:27.607Z,4.67
2017-04-12T11:53:27.180Z,4.35
2017-04-12T11:54:26.540Z,4.30
2017-04-12T11:55:26.340Z,4.23
2017-04-12T11:56:26.506Z,4.15
2017-04-12T11:57:25.898Z,4.05
2017-04-12T11:58:25.211Z,4.38
2017-04-12T11:59:24.489Z,3.87
2017-04-12T12:00:24.602Z,4.00
2017-04-12T12:01:24.045Z,3.83
2017-04-12T12:02:23.457Z,4.58
2017-04-12T12:03:23.553Z,4.67
2017-04-12T12:04:22.882Z,4.18
2017-04-12T12:05:22.341Z,4.50
2017-04-12T12:06:22.769Z,4.98
2017-04-12T12:07:22.157Z,4.50
2017-04-12T12:08:21.562Z,3.80
2017-04-12T12:09:20.945Z,4.00
2017-04-12T12:10:20.376Z,4.30
2017-04-12T12:11:19.718Z,4.82
2017-04-12T12:12:19.063Z,4.53
2017-04-12T12:13:18.433Z,4.45
2017-04-12T12:14:18.539Z,4.52
2017-04-12T12:15:39.529Z,4.43
2017-04-12T12:16:38.786Z,3.85
2017-04-12T12:17:38.314Z,5.08
2017-04-12T12:18:38.312Z,4.28
2017-04-12T12:19:37.557Z,4.67
2017-04-12T12:20:36.783Z,5.00
2017-04-12T12:21:36.088Z,5.10
2017-04-12T12:22:36.052Z,4.80
2017-04-12T12:23:36.392Z,4.65
2017-04-12T12:24:35.662Z,5.08
2017-04-12T12:25:34.917Z,5.43
2017-04-12T12:26:34.150Z,4.92
2017-04-12T12:27:33.388Z,5.25
2017-04-12T12:28:32.652Z,5.38
2017-04-12T12:29:32.597Z,4.48
2017-04-12T12:30:31.902Z,5.32
2017-04-12T12:31:31.161Z,4.92
2017-04-12T12:32:30.413Z,5.20
2017-04-12T12:33:29.634Z,5.58
2017-04-12T12:34:29.593Z,4.92
2017-04-12T12:35:28.876Z,5.18
2017-04-12T12:36:28.104Z,6.28
2017-04-12T12:37:27.324Z,4.93
2017-04-12T12:38:26.561Z,5.42
2017-04-12T12:39:25.800Z,5.48
2017-04-12T12:40:25.090Z,5.12
2017-04-12T12:41:24.340Z,5.28
2017-04-12T12:42:24.653Z,5.67
2017-04-12T12:43:24.724Z,5.33
2017-04-12T12:44:24.009Z,4.88
2017-04-12T12:45:23.347Z,4.88
2017-04-12T12:46:22.553Z,5.58
2017-04-12T12:47:21.805Z,5.52
2017-04-12T12:48:21.057Z,5.15
2017-04-12T12:49:20.500Z,5.35
2017-04-12T12:50:19.741Z,5.42
2017-04-12T12:51:18.980Z,5.83
2017-04-12T12:52:18.221Z,5.72
2017-04-12T12:53:17.481Z,6.02
2017-04-12T12:54:16.817Z,6.82
2017-04-12T12:55:16.097Z,5.52
2017-04-12T12:56:15.357Z,5.35
2017-04-12T12:57:14.596Z,5.40
2017-04-12T12:58:13.856Z,5.48
2017-04-12T12:59:13.132Z,4.83
2017-04-12T13:00:13.151Z,5.33
2017-04-12T13:01:12.394Z,5.70
2017-04-12T13:02:11.654Z,5.50
2017-04-12T13:03:11.624Z,5.42
2017-04-12T13:04:10.877Z,4.95
2017-04-12T13:05:10.194Z,5.55
2017-04-12T13:06:09.445Z,5.88
2017-04-12T13:07:08.771Z,4.95
2017-04-12T13:08:08.024Z,5.40
2017-04-12T13:09:07.258Z,5.93
2017-04-12T13:10:06.496Z,5.70
2017-04-12T13:11:05.761Z,5.78
2017-04-12T13:12:05.208Z,5.50
2017-04-12T13:13:04.424Z,5.95
2017-04-12T13:14:04.413Z,5.10